NFTL/HPA METAR and TAF weather

Enter ICAO airport designator
Station Type Date Time Source
NFTL METAR 2021/10/24 21:00 UTC NOAA

NFTL 242100Z 10013KT 9999 FEW020 26/16 Q1015 RMK DRY AIR 53%


Station Type Date Time Source
NFTL Decoded METAR 2021/10/24 21:00 UTC NOAA

Haapai, Tonga (NFTL) 19-48S 174-21W 3M
Oct 24, 2021 - 05:00 PM EDT / 2021.10.24 2100 UTC
Wind: from the E (100 degrees) at 15 MPH (13 KT):0
Visibility: greater than 7 mile(s):0
Sky conditions: mostly clear
Temperature: 78 F (26 C)
Dew Point: 60 F (16 C)
Relative Humidity: 54%
Pressure (altimeter): 29.97 in. Hg (1015 hPa)
ob: NFTL 242100Z 10013KT 9999 FEW020 26/16 Q1015 RMK DRY AIR 53%
cycle: 21

Station Type Date Time Source
NFTL TAF 2018/02/21 17:36 UTC NOAA

TAF NFTL 211605Z 2117/2208 12010KT 9999 SCT018

Example: see airport list